Time;durP1;ratioP1;P1;durP2;ratioP2;P2;SDS_P1;SDS_P2;PMS_P1;PMS_P2;Temp;Humidity;BMP_temperature;BMP_pressure;BME280_temperature;BME280_humidity;BME280_pressure;Samples;Min_cycle;Max_cycle;Signal;HPM_P1;HPM_P2
2022/04/17 00:00:00;;;;;;;4.67;3.80;;;6.50;86.30;;;;;;5030195;28;20454;-69
2022/04/17 00:02:27;;;;;;;4.60;3.80;;;6.50;85.50;;;;;;5030160;28;20225;-69
2022/04/17 00:04:53;;;;;;;7.03;3.83;;;6.40;86.00;;;;;;4995905;28;20438;-69
2022/04/17 00:07:19;;;;;;;5.87;3.70;;;6.30;85.60;;;;;;5030120;28;20594;-69
2022/04/17 00:09:44;;;;;;;6.43;4.13;;;6.20;86.60;;;;;;5030097;28;20514;-69
2022/04/17 00:12:11;;;;;;;3.60;3.10;;;6.30;86.80;;;;;;5030061;28;20788;-69
2022/04/17 00:14:37;;;;;;;4.20;3.53;;;6.30;85.10;;;;;;5029932;28;20317;-69
2022/04/17 00:17:03;;;;;;;4.83;3.20;;;6.30;85.80;;;;;;5029865;28;21264;-69
2022/04/17 00:19:29;;;;;;;3.40;3.10;;;6.20;86.90;;;;;;5029835;28;20524;-68
2022/04/17 00:21:55;;;;;;;4.50;3.70;;;6.20;86.60;;;;;;5029850;28;20558;-68
2022/04/17 00:24:21;;;;;;;5.80;3.33;;;6.20;86.20;;;;;;5029737;28;20442;-68
2022/04/17 00:26:46;;;;;;;4.33;3.53;;;6.10;87.00;;;;;;5029770;28;20427;-69
2022/04/17 00:29:12;;;;;;;5.50;3.87;;;6.10;87.80;;;;;;5011697;28;20258;-69
2022/04/17 00:31:38;;;;;;;5.57;3.27;;;6.00;87.90;;;;;;5031011;28;20191;-69
2022/04/17 00:34:04;;;;;;;3.87;3.30;;;6.00;86.90;;;;;;5031510;28;20430;-69
2022/04/17 00:36:29;;;;;;;3.40;3.10;;;6.10;86.40;;;;;;5011854;28;20208;-69
2022/04/17 00:38:55;;;;;;;7.33;3.70;;;6.10;86.90;;;;;;5029954;28;20195;-69
2022/04/17 00:41:21;;;;;;;9.10;5.33;;;6.10;89.10;;;;;;5029790;28;20187;-68
2022/04/17 00:43:47;;;;;;;5.57;4.40;;;6.10;88.40;;;;;;5029223;28;20657;-70
2022/04/17 00:46:14;;;;;;;4.17;3.73;;;6.00;88.00;;;;;;5029309;28;20204;-69
2022/04/17 00:48:40;;;;;;;5.43;4.10;;;5.90;88.70;;;;;;5029501;28;20467;-69
2022/04/17 00:51:06;;;;;;;8.07;3.60;;;5.90;90.00;;;;;;5029445;28;20498;-71
2022/04/17 00:53:34;;;;;;;6.63;4.40;;;5.90;90.40;;;;;;5029399;28;20411;-69
2022/04/17 00:56:00;;;;;;;4.30;3.90;;;5.80;90.40;;;;;;5029545;28;21003;-68
2022/04/17 00:58:28;;;;;;;7.73;4.33;;;5.70;90.80;;;;;;5029473;28;20802;-68
2022/04/17 01:00:54;;;;;;;4.93;4.43;;;5.80;90.90;;;;;;5029334;28;21219;-68
2022/04/17 01:03:19;;;;;;;5.03;4.13;;;5.70;91.40;;;;;;5029449;28;20458;-68
2022/04/17 01:05:46;;;;;;;7.87;4.73;;;5.60;91.60;;;;;;5029695;28;20422;-68
2022/04/17 01:08:13;;;;;;;4.53;4.03;;;5.60;91.70;;;;;;5029561;28;20738;-68
2022/04/17 01:10:39;;;;;;;5.70;4.00;;;5.60;91.90;;;;;;5029665;28;20434;-68
2022/04/17 01:13:09;;;;;;;5.17;4.33;;;5.70;92.00;;;;;;5029628;28;20435;-70
2022/04/17 01:15:36;;;;;;;6.93;4.60;;;5.60;92.00;;;;;;5029720;28;20437;-67
2022/04/17 01:18:02;;;;;;;5.00;4.10;;;5.60;92.10;;;;;;5029484;28;20461;-68
2022/04/17 01:20:27;;;;;;;4.70;4.20;;;5.50;91.90;;;;;;5029576;28;20839;-68
2022/04/17 01:26:55;;;;;;;6.03;3.80;;;5.50;92.10;;;;;;5029522;28;20455;-68
2022/04/17 01:28:27;;;;;;;4.90;3.93;;;5.50;91.90;;;;;;5029464;28;20556;-68
2022/04/17 01:30:54;;;;;;;4.83;4.40;;;5.40;92.00;;;;;;5029541;28;21066;-68
2022/04/17 01:33:20;;;;;;;5.57;3.57;;;5.40;92.10;;;;;;5029357;28;20246;-70
2022/04/17 01:35:45;;;;;;;9.93;4.23;;;5.50;91.80;;;;;;5028828;28;20768;-68
2022/04/17 01:38:11;;;;;;;4.80;4.07;;;5.40;92.10;;;;;;5028676;28;20426;-68
2022/04/17 01:40:37;;;;;;;6.07;4.00;;;5.40;92.20;;;;;;5028621;28;20185;-68
2022/04/17 01:43:10;;;;;;;4.87;3.87;;;5.40;91.80;;;;;;5028518;28;20200;-69
2022/04/17 01:45:36;;;;;;;6.63;4.27;;;5.40;91.50;;;;;;5028527;28;20688;-68
2022/04/17 01:48:02;;;;;;;6.87;3.77;;;5.40;91.50;;;;;;5028277;28;20506;-69
2022/04/17 01:50:27;;;;;;;5.57;4.60;;;5.40;91.90;;;;;;5028446;28;20185;-69
2022/04/17 01:52:53;;;;;;;5.30;3.70;;;5.40;92.10;;;;;;5028432;28;20751;-70
2022/04/17 01:55:19;;;;;;;4.10;3.73;;;5.40;92.10;;;;;;5028367;28;20188;-68
2022/04/17 01:57:45;;;;;;;4.00;3.57;;;5.40;91.90;;;;;;5028243;28;20458;-72
2022/04/17 02:00:11;;;;;;;4.90;3.90;;;5.50;91.80;;;;;;5028320;28;20521;-71
2022/04/17 02:02:37;;;;;;;5.07;3.90;;;5.50;91.40;;;;;;5028386;28;20259;-71
2022/04/17 02:05:04;;;;;;;5.17;3.83;;;5.40;91.70;;;;;;5028251;28;20509;-70
2022/04/17 02:07:29;;;;;;;4.70;4.17;;;5.40;91.70;;;;;;5028230;28;20227;-72
2022/04/17 02:09:55;;;;;;;6.20;4.10;;;5.40;92.00;;;;;;5028353;28;20454;-72
2022/04/17 02:12:22;;;;;;;4.67;3.53;;;5.30;92.10;;;;;;5010367;28;20184;-73
2022/04/17 02:14:48;;;;;;;5.33;4.23;;;5.30;93.10;;;;;;5030344;28;20184;-71
2022/04/17 02:17:14;;;;;;;3.53;3.22;;;5.20;93.90;;;;;;5032048;28;20433;-71
2022/04/17 02:19:39;;;;;;;4.37;3.50;;;5.20;92.60;;;;;;5032138;28;20185;-73
2022/04/17 02:22:05;;;;;;;4.33;3.67;;;5.20;92.30;;;;;;5014311;28;20427;-71
2022/04/17 02:24:32;;;;;;;4.50;3.97;;;5.20;92.70;;;;;;5032013;28;20200;-71
2022/04/17 02:26:58;;;;;;;3.87;3.57;;;5.20;93.40;;;;;;5032117;28;20200;-72
2022/04/17 02:29:24;;;;;;;6.00;3.83;;;5.20;93.20;;;;;;5013671;28;20494;-72
2022/04/17 02:31:49;;;;;;;5.93;4.47;;;5.10;93.60;;;;;;5031876;28;20423;-72
2022/04/17 02:34:15;;;;;;;4.97;3.43;;;5.00;93.70;;;;;;5013809;28;20578;-72
2022/04/17 02:36:41;;;;;;;7.60;4.70;;;5.00;94.10;;;;;;5031780;28;20205;-72
2022/04/17 02:39:06;;;;;;;3.97;3.10;;;5.00;94.10;;;;;;5015075;28;20567;-73
2022/04/17 02:41:32;;;;;;;4.40;3.93;;;4.90;94.20;;;;;;5015710;28;20232;-72
2022/04/17 02:43:57;;;;;;;4.33;3.93;;;4.80;94.60;;;;;;5033281;28;20188;-72
2022/04/17 02:49:07;;;;;;;3.30;3.00;;;4.70;93.90;;;;;;5032403;28;20278;-70
2022/04/17 02:51:33;;;;;;;3.50;3.20;;;4.90;92.20;;;;;;5032111;28;20431;-70
2022/04/17 02:53:59;;;;;;;3.57;3.20;;;4.90;92.70;;;;;;5014587;28;20184;-70
2022/04/17 02:56:25;;;;;;;4.07;3.07;;;4.90;93.70;;;;;;5031699;28;20453;-70
2022/04/17 02:58:54;;;;;;;6.57;3.57;;;4.90;93.10;;;;;;5031478;28;20427;-69
2022/04/17 03:06:49;;;;;;;3.23;2.93;;;4.90;92.00;;;;;;5016663;28;20532;-69
2022/04/17 03:09:14;;;;;;;3.40;3.10;;;5.00;91.40;;;;;;5013747;28;20501;-71
2022/04/17 03:11:40;;;;;;;5.77;2.97;;;5.00;92.60;;;;;;5031668;28;20192;-69
2022/04/17 03:14:06;;;;;;;4.70;3.27;;;4.80;92.50;;;;;;5031891;28;20185;-71
2022/04/17 03:16:31;;;;;;;5.27;3.40;;;4.80;92.90;;;;;;5014116;28;20201;-70
2022/04/17 03:18:57;;;;;;;4.07;3.30;;;4.70;93.50;;;;;;5031828;28;20593;-70
2022/04/17 03:21:22;;;;;;;6.10;3.93;;;4.70;94.00;;;;;;5031876;28;20275;-69
2022/04/17 03:23:48;;;;;;;3.77;3.37;;;4.70;93.70;;;;;;5014132;28;20334;-69
2022/04/17 03:26:14;;;;;;;3.90;2.80;;;4.50;94.30;;;;;;5030455;28;20220;-69
2022/04/17 03:28:39;;;;;;;5.30;2.90;;;4.40;94.50;;;;;;5013886;28;20221;-69
2022/04/17 03:31:05;;;;;;;4.00;3.57;;;4.40;93.30;;;;;;5031867;28;20195;-69
2022/04/17 03:33:31;;;;;;;3.57;3.10;;;4.40;94.00;;;;;;5031629;28;20274;-69
2022/04/17 03:35:57;;;;;;;6.80;3.67;;;4.50;93.70;;;;;;5032051;28;20184;-70
2022/04/17 03:38:23;;;;;;;3.83;2.97;;;4.60;93.40;;;;;;5031537;28;20240;-70
2022/04/17 03:40:48;;;;;;;4.63;3.13;;;4.60;93.40;;;;;;5031267;28;20441;-70
2022/04/17 03:43:14;;;;;;;7.03;3.83;;;4.50;93.60;;;;;;5013429;28;20418;-69
2022/04/17 03:45:40;;;;;;;3.60;3.30;;;4.40;94.40;;;;;;5031039;28;20522;-71
2022/04/17 03:48:06;;;;;;;4.00;3.00;;;4.40;94.70;;;;;;5013072;28;20299;-70
2022/04/17 03:50:32;;;;;;;3.40;3.10;;;4.40;94.40;;;;;;5030671;28;20514;-70
2022/04/17 03:52:57;;;;;;;3.07;2.80;;;4.40;94.70;;;;;;5013024;28;20418;-70
2022/04/17 03:55:24;;;;;;;4.80;3.20;;;4.40;94.60;;;;;;5012799;28;20190;-70
2022/04/17 03:57:49;;;;;;;4.90;3.47;;;4.30;95.20;;;;;;5012679;28;20297;-70
2022/04/17 04:00:16;;;;;;;3.63;3.10;;;4.20;95.20;;;;;;5013088;28;20522;-70
2022/04/17 04:02:43;;;;;;;3.37;2.97;;;4.10;96.30;;;;;;5030963;28;20790;-69
2022/04/17 04:05:10;;;;;;;3.60;3.30;;;4.10;96.00;;;;;;5033391;28;20434;-69
2022/04/17 04:07:36;;;;;;;3.80;2.97;;;4.00;96.00;;;;;;5031047;28;20462;-70
2022/04/17 04:10:07;;;;;;;5.03;3.50;;;3.90;96.00;;;;;;5031347;28;20414;-69
2022/04/17 04:12:34;;;;;;;7.10;3.20;;;3.80;96.70;;;;;;5030914;28;20418;-69
2022/04/17 04:14:59;;;;;;;4.57;2.90;;;3.80;97.20;;;;;;5030787;28;20505;-71
2022/04/17 04:17:25;;;;;;;3.63;2.90;;;3.90;96.50;;;;;;5012800;28;21048;-71
2022/04/17 04:19:51;;;;;;;4.03;2.90;;;3.90;96.50;;;;;;5030662;28;20547;-71
2022/04/17 04:22:17;;;;;;;3.67;3.33;;;3.90;96.80;;;;;;5012892;28;20180;-70
2022/04/17 04:24:42;;;;;;;4.20;3.50;;;3.80;97.00;;;;;;5030411;28;20196;-70
2022/04/17 04:29:52;;;;;;;3.30;3.00;;;3.70;98.80;;;;;;5030716;28;20202;-69
2022/04/17 04:32:20;;;;;;;6.33;3.70;;;3.60;98.60;;;;;;5030493;28;20525;-70
2022/04/17 04:34:45;;;;;;;6.10;3.65;;;3.60;99.10;;;;;;5030404;28;20216;-70
2022/04/17 04:37:11;;;;;;;4.70;4.20;;;3.60;99.00;;;;;;5029923;28;20208;-70
2022/04/17 04:39:38;;;;;;;6.13;4.03;;;3.60;99.80;;;;;;5030328;28;20670;-70
2022/04/17 04:42:04;;;;;;;4.05;3.50;;;3.50;99.70;;;;;;5030289;28;20261;-70
2022/04/17 04:44:29;;;;;;;6.93;3.40;;;3.50;99.90;;;;;;5030363;28;20180;-70
2022/04/17 04:46:55;;;;;;;4.00;3.60;;;3.60;99.90;;;;;;5012305;28;20200;-69
2022/04/17 04:49:30;;;;;;;5.47;4.20;;;3.50;99.90;;;;;;5012288;28;20475;-70
2022/04/17 04:52:06;;;;;;;12.83;3.67;;;3.40;99.90;;;;;;5030094;28;20191;-69
2022/04/17 04:54:32;;;;;;;3.85;3.33;;;3.40;99.90;;;;;;5030141;28;20444;-69
2022/04/17 04:56:58;;;;;;;4.82;4.30;;;3.50;99.90;;;;;;5029946;28;20212;-73
2022/04/17 04:59:24;;;;;;;5.43;3.70;;;3.50;99.90;;;;;;5029961;28;20190;-69
2022/04/17 05:01:51;;;;;;;4.63;3.90;;;3.50;99.90;;;;;;5029847;28;20427;-69
2022/04/17 05:04:18;;;;;;;4.35;3.80;;;3.50;99.90;;;;;;5012261;28;20193;-70
2022/04/17 05:06:45;;;;;;;3.85;3.40;;;3.30;99.90;;;;;;5029696;28;20249;-71
2022/04/17 05:09:10;;;;;;;4.60;4.20;;;3.30;99.90;;;;;;5029581;28;20298;-71
2022/04/17 05:11:37;;;;;;;3.70;3.40;;;3.30;99.90;;;;;;5029767;28;20269;-71
2022/04/17 05:14:04;;;;;;;7.53;3.37;;;3.20;99.90;;;;;;4995493;28;20431;-72
2022/04/17 05:16:30;;;;;;;4.22;3.50;;;3.30;99.90;;;;;;5030123;28;20965;-74
2022/04/17 05:19:19;;;;;;;3.50;3.20;;;3.20;99.90;;;;;;5029545;28;20189;-72
2022/04/17 05:21:41;;;;;;;4.88;4.30;;;3.30;99.90;;;;;;5029355;28;20689;-72
2022/04/17 05:24:07;;;;;;;10.60;4.30;;;3.30;99.90;;;;;;5011587;28;20222;-72
2022/04/17 05:26:32;;;;;;;4.68;4.07;;;3.30;99.90;;;;;;5029445;28;20655;-72
2022/04/17 05:29:02;;;;;;;6.77;4.30;;;3.30;99.90;;;;;;5011589;28;20217;-72
2022/04/17 05:31:28;;;;;;;6.95;3.90;;;3.30;99.90;;;;;;5012009;28;20182;-73
2022/04/17 05:33:53;;;;;;;4.50;4.00;;;3.50;99.90;;;;;;5029392;28;20186;-73
2022/04/17 05:36:19;;;;;;;6.57;3.83;;;3.70;99.90;;;;;;5029309;28;20467;-73
2022/04/17 05:38:45;;;;;;;6.17;4.90;;;3.90;99.90;;;;;;5029458;28;20700;-71
2022/04/17 05:41:10;;;;;;;4.57;4.17;;;4.20;99.90;;;;;;5029282;28;20209;-71
2022/04/17 05:43:38;;;;;;;7.17;4.83;;;4.30;99.90;;;;;;5029437;28;20186;-71
2022/04/17 05:46:04;;;;;;;4.28;3.88;;;4.50;99.90;;;;;;5029179;28;20642;-70
2022/04/17 05:48:29;;;;;;;8.40;4.93;;;4.60;99.70;;;;;;5029199;28;20215;-72
2022/04/17 05:50:55;;;;;;;6.13;4.43;;;4.80;99.90;;;;;;5033217;28;20513;-74
2022/04/17 05:53:21;;;;;;;8.27;4.70;;;4.80;99.30;;;;;;5015718;28;20191;-72
2022/04/17 05:55:47;;;;;;;3.90;3.40;;;5.10;99.30;;;;;;5033236;28;20419;-73
2022/04/17 05:58:13;;;;;;;4.77;4.37;;;5.40;98.20;;;;;;5033242;28;20430;-72
2022/04/17 06:00:42;;;;;;;7.23;4.57;;;5.40;97.20;;;;;;5033253;28;20188;-72
2022/04/17 06:03:08;;;;;;;6.03;3.90;;;5.60;97.40;;;;;;5033284;28;20184;-72
2022/04/17 06:05:33;;;;;;;5.20;4.03;;;5.90;96.70;;;;;;5033076;28;20418;-73
2022/04/17 06:07:59;;;;;;;4.20;3.60;;;6.20;95.70;;;;;;5033014;28;20216;-72
2022/04/17 06:10:24;;;;;;;4.83;3.93;;;6.40;95.00;;;;;;5033136;28;20180;-72
2022/04/17 06:12:50;;;;;;;6.63;4.40;;;6.60;94.40;;;;;;5032767;28;20181;-72
2022/04/17 06:15:16;;;;;;;5.53;4.20;;;6.80;93.90;;;;;;5032474;28;20184;-72
2022/04/17 06:17:43;;;;;;;10.50;7.37;;;7.10;92.80;;;;;;5014549;28;20289;-72
2022/04/17 06:20:14;;;;;;;7.07;5.93;;;7.10;93.50;;;;;;5032268;28;20193;-72
2022/04/17 06:22:41;;;;;;;9.80;6.70;;;7.20;93.60;;;;;;5032764;28;20419;-72
2022/04/17 06:25:08;;;;;;;8.00;6.20;;;7.40;93.60;;;;;;5032126;28;20900;-72
2022/04/17 06:27:48;;;;;;;8.00;6.10;;;7.70;93.70;;;;;;5031820;28;20989;-72
2022/04/17 06:30:19;;;;;;;4.83;4.40;;;8.00;93.10;;;;;;5032059;28;20414;-72
2022/04/17 06:32:46;;;;;;;4.90;3.90;;;8.40;93.30;;;;;;5031884;28;20450;-72
2022/04/17 06:35:13;;;;;;;4.77;3.87;;;8.80;91.30;;;;;;5031852;28;21260;-72
2022/04/17 06:38:06;;;;;;;3.83;3.40;;;9.00;91.70;;;;;;5031603;28;20451;-72
2022/04/17 06:40:33;;;;;;;3.43;2.90;;;9.30;89.60;;;;;;5028726;28;20442;-72
2022/04/17 06:43:05;;;;;;;4.77;3.43;;;9.50;81.70;;;;;;5031809;28;20427;-72
2022/04/17 06:45:33;;;;;;;6.07;4.63;;;9.90;80.80;;;;;;5031750;28;21198;-72
2022/04/17 06:48:11;;;;;;;4.13;3.67;;;10.00;80.40;;;;;;5031474;28;20462;-72
2022/04/17 06:50:36;;;;;;;5.73;3.80;;;10.20;82.10;;;;;;5031593;28;20403;-72
2022/04/17 06:53:03;;;;;;;4.60;3.27;;;10.30;77.70;;;;;;5031457;28;20422;-72
2022/04/17 06:55:29;;;;;;;3.50;3.00;;;10.70;74.80;;;;;;5031587;28;20555;-72
2022/04/17 06:57:54;;;;;;;4.17;2.60;;;10.70;71.50;;;;;;5031484;28;20443;-72
2022/04/17 07:00:22;;;;;;;3.97;2.90;;;10.70;70.00;;;;;;5031133;28;20188;-72
2022/04/17 07:02:47;;;;;;;3.10;2.90;;;10.80;68.40;;;;;;5013869;28;20183;-72
2022/04/17 07:05:14;;;;;;;3.63;2.70;;;10.90;68.10;;;;;;5031323;28;20427;-72
2022/04/17 07:07:40;;;;;;;2.73;2.43;;;11.00;68.80;;;;;;5013236;28;20720;-72
2022/04/17 07:10:07;;;;;;;4.00;2.83;;;11.00;67.70;;;;;;5013314;28;20442;-72
2022/04/17 07:12:34;;;;;;;6.47;2.83;;;10.40;64.80;;;;;;5031318;28;20427;-73
2022/04/17 07:15:00;;;;;;;3.23;2.30;;;10.50;66.00;;;;;;5031329;28;20443;-72
2022/04/17 07:17:37;;;;;;;3.73;2.30;;;10.60;61.50;;;;;;5031215;28;20444;-72
2022/04/17 07:20:07;;;;;;;2.50;2.20;;;11.10;65.40;;;;;;5013623;28;20453;-72
2022/04/17 07:22:37;;;;;;;3.40;2.37;;;10.90;60.30;;;;;;5032470;28;20468;-72
2022/04/17 07:25:04;;;;;;;3.13;2.40;;;11.10;61.80;;;;;;5014276;28;20455;-72
2022/04/17 07:27:45;;;;;;;2.70;2.23;;;11.20;60.50;;;;;;5044368;28;20444;-72
2022/04/17 07:30:31;;;;;;;1.97;1.77;;;11.10;57.70;;;;;;5050835;28;20427;-72
2022/04/17 07:32:58;;;;;;;3.00;2.30;;;10.40;58.50;;;;;;5046937;28;20424;-72
2022/04/17 07:35:26;;;;;;;2.47;2.27;;;10.60;59.50;;;;;;5040815;28;20445;-72
2022/04/17 07:37:56;;;;;;;2.30;2.07;;;10.00;57.60;;;;;;5036454;28;20937;-72
2022/04/17 07:40:25;;;;;;;2.20;2.07;;;10.00;59.20;;;;;;5031634;28;20455;-72
2022/04/17 07:42:52;;;;;;;1.87;1.70;;;10.20;62.50;;;;;;5030729;28;20419;-72
2022/04/17 07:45:19;;;;;;;2.87;2.40;;;9.90;59.80;;;;;;5030769;28;20417;-72
2022/04/17 07:47:45;;;;;;;4.50;2.37;;;10.20;59.60;;;;;;5030354;28;20467;-72
2022/04/17 07:50:14;;;;;;;3.20;2.63;;;10.20;59.30;;;;;;5030612;28;20419;-72
2022/04/17 07:52:41;;;;;;;2.23;2.00;;;10.30;59.10;;;;;;5029894;28;20415;-72
2022/04/17 07:55:08;;;;;;;3.53;1.77;;;10.60;59.40;;;;;;5029730;28;20424;-72
2022/04/17 07:57:55;;;;;;;4.10;2.47;;;11.00;58.80;;;;;;5029842;28;20442;-72
2022/04/17 08:00:21;;;;;;;2.70;2.50;;;11.00;56.10;;;;;;5014770;28;20459;-72
2022/04/17 08:02:55;;;;;;;3.77;2.40;;;10.90;56.30;;;;;;5029696;28;20415;-72
2022/04/17 08:05:24;;;;;;;3.57;2.23;;;10.70;55.00;;;;;;5029688;28;20412;-72
2022/04/17 08:07:51;;;;;;;2.80;1.83;;;10.90;56.70;;;;;;5029252;28;20518;-72
2022/04/17 08:10:17;;;;;;;2.20;2.00;;;10.70;56.40;;;;;;5029263;28;21113;-72
2022/04/17 08:12:44;;;;;;;3.03;2.00;;;10.50;55.20;;;;;;5028227;28;20431;-72
2022/04/17 08:15:10;;;;;;;4.40;2.23;;;10.50;56.30;;;;;;5028877;28;20185;-72
2022/04/17 08:17:35;;;;;;;2.50;1.93;;;10.60;58.10;;;;;;5028784;28;20519;-72
2022/04/17 08:20:01;;;;;;;1.93;1.80;;;11.00;58.90;;;;;;5010881;28;21284;-72
2022/04/17 08:22:27;;;;;;;2.07;1.90;;;11.10;56.30;;;;;;5028888;28;20644;-72
2022/04/17 08:24:53;;;;;;;3.63;1.77;;;11.00;55.10;;;;;;5028528;28;20444;-72
2022/04/17 08:27:18;;;;;;;3.57;2.23;;;11.40;57.10;;;;;;5028721;28;20229;-72
2022/04/17 08:29:44;;;;;;;2.43;2.23;;;11.70;54.70;;;;;;5028642;28;20457;-72
2022/04/17 08:32:09;;;;;;;2.77;1.90;;;11.80;54.90;;;;;;5028452;28;20181;-73
2022/04/17 08:34:35;;;;;;;4.83;2.20;;;11.80;54.10;;;;;;5028363;28;20182;-73
2022/04/17 08:37:01;;;;;;;2.07;1.87;;;11.80;55.30;;;;;;5028647;28;20619;-72
2022/04/17 08:39:26;;;;;;;2.43;1.83;;;12.20;56.60;;;;;;5010759;28;20183;-73
2022/04/17 08:41:54;;;;;;;3.20;2.07;;;12.70;55.20;;;;;;5028474;28;20427;-72
2022/04/17 08:44:22;;;;;;;5.77;2.40;;;12.70;54.10;;;;;;5028261;28;20187;-73
2022/04/17 08:46:48;;;;;;;2.10;2.00;;;12.80;54.00;;;;;;5010360;28;20446;-72
2022/04/17 08:49:14;;;;;;;2.70;2.17;;;13.30;55.00;;;;;;5028262;28;20818;-74
2022/04/17 08:51:42;;;;;;;2.97;2.20;;;13.40;51.50;;;;;;5028136;28;20195;-74
2022/04/17 08:54:08;;;;;;;7.50;2.20;;;13.10;50.80;;;;;;5028187;28;20533;-74
2022/04/17 08:56:37;;;;;;;3.10;2.13;;;13.60;50.50;;;;;;5027927;28;20434;-73
2022/04/17 08:59:02;;;;;;;1.60;1.50;;;13.80;50.10;;;;;;5028134;28;20924;-73
2022/04/17 09:01:28;;;;;;;1.70;1.60;;;13.90;48.90;;;;;;5027977;28;20453;-73
2022/04/17 09:03:54;;;;;;;2.00;1.90;;;14.30;49.20;;;;;;5028448;28;20235;-73
2022/04/17 09:06:21;;;;;;;1.87;1.53;;;14.00;47.40;;;;;;5028367;28;20449;-73
2022/04/17 09:09:03;;;;;;;2.40;1.97;;;14.60;48.40;;;;;;5010199;28;20591;-73
2022/04/17 09:11:31;;;;;;;4.50;1.80;;;15.10;48.60;;;;;;5010531;28;20429;-72
2022/04/17 09:13:58;;;;;;;2.07;1.73;;;15.70;49.00;;;;;;5028314;28;20425;-73
2022/04/17 09:16:34;;;;;;;2.50;1.50;;;16.10;46.90;;;;;;5010275;28;20443;-73
2022/04/17 09:19:15;;;;;;;2.83;1.70;;;16.40;42.70;;;;;;5028217;28;20418;-72
2022/04/17 09:21:41;;;;;;;3.53;2.03;;;16.90;43.50;;;;;;5028185;28;20755;-73
2022/04/17 09:24:15;;;;;;;1.77;1.60;;;16.70;42.30;;;;;;5010014;28;21241;-73
2022/04/17 09:26:48;;;;;;;7.90;1.97;;;16.60;40.10;;;;;;5027852;28;20450;-73
2022/04/17 09:29:18;;;;;;;3.90;1.73;;;16.50;39.60;;;;;;5027955;28;20463;-73
2022/04/17 09:31:43;;;;;;;2.93;2.33;;;16.50;38.50;;;;;;5028186;28;20450;-73
2022/04/17 09:34:09;;;;;;;1.73;1.53;;;16.80;40.10;;;;;;5028057;28;20452;-73
2022/04/17 09:36:37;;;;;;;2.73;1.50;;;17.10;39.60;;;;;;5028021;28;20205;-73
2022/04/17 09:39:35;;;;;;;2.10;1.60;;;16.90;37.80;;;;;;5010259;28;20181;-72
2022/04/17 09:42:02;;;;;;;2.80;1.57;;;16.00;34.70;;;;;;5027812;28;20970;-73
2022/04/17 09:44:35;;;;;;;2.23;1.70;;;15.60;34.10;;;;;;5027670;28;20434;-73
2022/04/17 09:47:02;;;;;;;2.87;1.43;;;15.60;33.90;;;;;;5027876;28;20488;-73
2022/04/17 09:49:27;;;;;;;1.97;1.60;;;15.30;32.90;;;;;;5027574;28;20462;-73
2022/04/17 09:52:09;;;;;;;2.30;1.47;;;15.00;33.60;;;;;;5027332;28;20419;-73
2022/04/17 09:54:35;;;;;;;1.83;1.40;;;15.20;32.20;;;;;;5027267;28;20180;-73
2022/04/17 09:57:01;;;;;;;2.10;1.73;;;15.70;33.20;;;;;;5027153;28;20521;-73
2022/04/17 09:59:30;;;;;;;1.77;1.67;;;16.60;33.40;;;;;;5027456;28;20843;-73
2022/04/17 10:01:57;;;;;;;1.30;1.20;;;16.70;32.00;;;;;;5027453;28;20415;-73
2022/04/17 10:04:25;;;;;;;1.73;1.37;;;17.40;31.60;;;;;;5009704;28;20427;-74
2022/04/17 10:06:55;;;;;;;1.60;1.37;;;17.20;30.10;;;;;;5027384;28;20447;-74
2022/04/17 10:09:21;;;;;;;1.40;1.30;;;17.90;30.30;;;;;;5027078;28;20954;-73
2022/04/17 10:11:49;;;;;;;2.93;1.20;;;18.30;29.50;;;;;;5009029;28;20453;-73
2022/04/17 10:14:15;;;;;;;1.73;1.63;;;17.90;28.60;;;;;;5027071;28;20974;-74
2022/04/17 10:16:42;;;;;;;1.63;1.20;;;18.20;29.20;;;;;;5026830;28;20445;-73
2022/04/17 10:19:13;;;;;;;1.93;1.57;;;18.40;28.60;;;;;;5026992;28;20416;-73
2022/04/17 10:21:42;;;;;;;4.43;1.30;;;17.40;28.40;;;;;;5009055;28;20423;-73
2022/04/17 10:24:11;;;;;;;2.50;1.30;;;17.10;29.30;;;;;;5026775;28;20432;-73
2022/04/17 10:26:58;;;;;;;2.83;1.30;;;17.30;31.30;;;;;;5026863;28;20431;-74
2022/04/17 10:29:45;;;;;;;2.97;1.30;;;17.30;30.60;;;;;;5008740;28;20554;-72
2022/04/17 10:32:27;;;;;;;2.00;1.30;;;17.90;30.80;;;;;;5026965;28;20850;-72
2022/04/17 10:35:30;;;;;;;1.60;1.43;;;18.90;30.70;;;;;;5027405;28;20834;-72
2022/04/17 10:38:41;;;;;;;1.50;1.40;;;19.50;30.00;;;;;;5000030;28;20447;-73
2022/04/17 10:41:09;;;;;;;1.20;1.10;;;20.00;29.50;;;;;;5009501;28;20428;-72
2022/04/17 10:43:58;;;;;;;1.93;1.27;;;20.20;29.70;;;;;;5030882;28;20906;-74
2022/04/17 10:46:25;;;;;;;1.27;1.17;;;20.30;29.30;;;;;;5032793;28;20516;-72
2022/04/17 10:48:58;;;;;;;1.80;1.47;;;20.20;28.60;;;;;;5030664;28;20479;-72
2022/04/17 10:51:25;;;;;;;2.80;1.80;;;20.20;27.60;;;;;;5030711;28;20423;-72
2022/04/17 10:54:13;;;;;;;1.87;1.30;;;20.10;27.70;;;;;;5012713;28;20429;-72
2022/04/17 10:56:54;;;;;;;11.77;1.33;;;20.30;28.50;;;;;;5030954;28;20445;-72
2022/04/17 10:59:21;;;;;;;1.73;1.20;;;20.80;29.30;;;;;;5030531;28;20419;-72
2022/04/17 11:02:01;;;;;;;1.57;1.40;;;20.80;27.50;;;;;;5031387;28;21102;-72
2022/04/17 11:04:53;;;;;;;1.43;1.30;;;20.10;26.50;;;;;;5031455;28;20422;-72
2022/04/17 11:07:21;;;;;;;1.40;1.30;;;20.20;27.40;;;;;;5020853;28;20459;-72
2022/04/17 11:09:47;;;;;;;2.20;1.40;;;19.50;27.50;;;;;;5013257;28;20876;-72
2022/04/17 11:12:18;;;;;;;3.23;1.50;;;19.70;28.90;;;;;;5031414;28;20414;-72
2022/04/17 11:15:07;;;;;;;2.60;1.77;;;20.30;31.10;;;;;;5031304;28;20425;-72
2022/04/17 11:17:33;;;;;;;4.10;1.73;;;20.30;29.80;;;;;;5020648;28;20454;-72
2022/04/17 11:20:00;;;;;;;1.70;1.60;;;20.50;29.60;;;;;;5031430;28;20415;-72
2022/04/17 11:22:31;;;;;;;4.10;1.90;;;20.70;30.40;;;;;;5031186;28;20185;-71
2022/04/17 11:25:02;;;;;;;1.37;1.27;;;20.50;28.50;;;;;;5031201;28;21039;-72
2022/04/17 11:27:49;;;;;;;3.17;1.63;;;20.00;28.20;;;;;;5031512;28;20430;-72
2022/04/17 11:30:14;;;;;;;1.63;1.50;;;20.40;30.20;;;;;;5031124;28;20974;-72
2022/04/17 11:32:40;;;;;;;3.43;1.63;;;20.80;31.00;;;;;;5030915;28;20453;-72
2022/04/17 11:35:08;;;;;;;2.40;1.63;;;20.90;30.80;;;;;;5030597;28;20646;-72
2022/04/17 11:37:34;;;;;;;3.43;1.47;;;21.00;31.90;;;;;;5012752;28;20501;-72
2022/04/17 11:40:11;;;;;;;1.90;1.37;;;21.00;32.10;;;;;;5030452;28;20417;-72
2022/04/17 11:42:51;;;;;;;4.07;1.63;;;20.80;30.70;;;;;;5030410;28;20419;-72
2022/04/17 11:45:25;;;;;;;2.30;1.50;;;21.00;31.40;;;;;;5030413;28;20522;-72
2022/04/17 11:47:53;;;;;;;1.60;1.50;;;21.20;29.80;;;;;;5029541;28;20800;-72
2022/04/17 11:50:26;;;;;;;1.90;1.07;;;21.10;30.00;;;;;;5030764;28;20414;-72
2022/04/17 11:52:57;;;;;;;1.50;1.23;;;21.10;29.90;;;;;;5030698;28;20434;-72
2022/04/17 11:55:24;;;;;;;1.43;1.33;;;21.10;29.30;;;;;;5030758;28;20442;-72
2022/04/17 11:57:51;;;;;;;2.80;1.57;;;21.30;29.50;;;;;;5012783;28;20474;-72
2022/04/17 12:00:16;;;;;;;3.63;1.47;;;21.50;29.60;;;;;;5030456;28;20429;-72
2022/04/17 12:02:42;;;;;;;2.77;1.80;;;21.60;30.20;;;;;;5012808;28;20441;-72
2022/04/17 12:05:12;;;;;;;1.20;1.10;;;21.60;28.60;;;;;;5030373;28;20653;-72
2022/04/17 12:07:38;;;;;;;2.23;1.20;;;21.40;27.20;;;;;;5030405;28;20266;-72
2022/04/17 12:10:04;;;;;;;4.00;1.30;;;21.40;28.10;;;;;;5030423;28;20423;-72
2022/04/17 12:12:42;;;;;;;3.13;1.23;;;21.50;26.20;;;;;;5013381;28;20254;-72
2022/04/17 12:15:11;;;;;;;1.10;1.00;;;21.50;27.70;;;;;;5038073;28;20509;-72
2022/04/17 12:17:37;;;;;;;1.40;1.30;;;21.70;28.10;;;;;;5032048;28;20832;-72
2022/04/17 12:20:13;;;;;;;1.40;1.20;;;21.50;28.60;;;;;;5031951;28;20419;-72
2022/04/17 12:22:40;;;;;;;2.87;1.20;;;21.80;28.90;;;;;;5032155;28;20414;-72
2022/04/17 12:25:35;;;;;;;1.90;1.20;;;22.00;28.30;;;;;;5031960;28;20473;-72
2022/04/17 12:28:01;;;;;;;4.60;1.37;;;21.90;27.50;;;;;;4999390;28;20558;-72
2022/04/17 12:30:28;;;;;;;2.20;1.60;;;21.10;26.90;;;;;;5034225;28;20432;-72
2022/04/17 12:33:00;;;;;;;1.40;1.23;;;21.00;27.40;;;;;;5031114;28;20418;-73
2022/04/17 12:35:32;;;;;;;1.40;1.30;;;20.60;26.90;;;;;;5029961;28;20411;-72
2022/04/17 12:38:10;;;;;;;3.57;1.40;;;20.90;29.20;;;;;;5029445;28;20976;-72
2022/04/17 12:40:44;;;;;;;2.70;1.33;;;21.00;28.50;;;;;;5029513;28;21031;-72
2022/04/17 12:43:14;;;;;;;3.23;1.20;;;21.00;27.80;;;;;;5029190;28;20427;-72
2022/04/17 12:45:53;;;;;;;1.57;1.07;;;21.00;27.60;;;;;;5029198;28;20418;-72
2022/04/17 12:48:28;;;;;;;1.10;1.00;;;21.00;27.10;;;;;;5028946;28;20473;-72
2022/04/17 12:50:58;;;;;;;2.13;1.00;;;20.90;26.00;;;;;;5028694;28;20468;-73
2022/04/17 12:53:24;;;;;;;1.37;1.10;;;21.10;26.00;;;;;;5028810;28;20416;-72
2022/04/17 12:55:53;;;;;;;2.23;1.23;;;20.70;24.90;;;;;;5028315;28;20436;-73
2022/04/17 12:58:20;;;;;;;2.03;1.17;;;20.30;25.00;;;;;;5028295;28;20195;-73
2022/04/17 13:00:55;;;;;;;1.60;1.50;;;20.60;26.30;;;;;;5028346;28;20828;-73
2022/04/17 13:03:22;;;;;;;2.80;1.33;;;20.80;26.00;;;;;;5028208;28;20997;-73
2022/04/17 13:06:02;;;;;;;1.40;1.20;;;21.00;26.50;;;;;;5010544;28;20424;-74
2022/04/17 13:08:28;;;;;;;1.10;1.00;;;20.90;27.10;;;;;;5027996;28;20480;-73
2022/04/17 13:10:53;;;;;;;1.73;1.20;;;20.90;26.90;;;;;;5010157;28;20427;-73
2022/04/17 13:13:38;;;;;;;2.23;1.23;;;21.10;26.30;;;;;;5028027;28;20593;-73